createdAt,value
2022-07-28T00:00:11.350Z,17.80
2022-07-28T00:02:38.661Z,17.90
2022-07-28T00:05:06.451Z,17.80
2022-07-28T00:07:33.851Z,17.80
2022-07-28T00:10:01.228Z,17.70
2022-07-28T00:12:28.439Z,17.70
2022-07-28T00:14:55.740Z,17.60
2022-07-28T00:17:23.100Z,17.60
2022-07-28T00:19:50.846Z,17.70
2022-07-28T00:22:18.404Z,17.80
2022-07-28T00:24:45.679Z,17.80
2022-07-28T00:27:14.751Z,17.80
2022-07-28T00:29:50.085Z,17.90
2022-07-28T00:32:19.146Z,17.90
2022-07-28T00:34:47.032Z,17.90
2022-07-28T00:37:14.819Z,17.90
2022-07-28T00:39:43.514Z,18.00
2022-07-28T00:42:10.798Z,18.00
2022-07-28T00:44:41.896Z,17.90
2022-07-28T00:47:09.528Z,17.90
2022-07-28T00:49:38.230Z,17.80
2022-07-28T00:52:08.842Z,17.90
2022-07-28T00:54:37.153Z,17.80
2022-07-28T00:57:04.475Z,17.80
2022-07-28T00:59:33.675Z,17.80
2022-07-28T01:02:02.211Z,17.70
2022-07-28T01:04:30.493Z,17.70
2022-07-28T01:07:11.946Z,17.60
2022-07-28T01:09:44.217Z,17.70
2022-07-28T01:12:11.382Z,17.70
2022-07-28T01:14:40.203Z,17.70
2022-07-28T01:17:35.303Z,17.60
2022-07-28T01:20:12.703Z,17.60
2022-07-28T01:23:04.470Z,17.50
2022-07-28T01:25:48.438Z,17.50
2022-07-28T01:28:34.795Z,17.50
2022-07-28T01:31:06.976Z,17.40
2022-07-28T01:33:38.634Z,17.40
2022-07-28T01:36:22.827Z,17.40
2022-07-28T01:38:51.036Z,17.40
2022-07-28T01:41:29.317Z,17.40
2022-07-28T01:44:05.899Z,17.40
2022-07-28T01:46:34.189Z,17.40
2022-07-28T01:49:02.810Z,17.40
2022-07-28T01:51:31.196Z,17.40
2022-07-28T01:54:00.320Z,17.40
2022-07-28T01:56:29.588Z,17.40
2022-07-28T01:59:00.064Z,17.30
2022-07-28T02:01:28.575Z,17.30
2022-07-28T02:03:58.167Z,17.40
2022-07-28T02:06:26.297Z,17.30
2022-07-28T02:08:54.810Z,17.30
2022-07-28T02:11:41.478Z,17.30
2022-07-28T02:14:13.927Z,17.30
2022-07-28T02:16:45.509Z,17.20
2022-07-28T02:19:13.887Z,17.20
2022-07-28T02:21:42.460Z,17.20
2022-07-28T02:24:12.433Z,17.10
2022-07-28T02:26:46.695Z,17.10
2022-07-28T02:29:40.383Z,17.10
2022-07-28T02:32:23.939Z,17.00
2022-07-28T02:35:27.928Z,17.10
2022-07-28T02:38:06.692Z,17.00
2022-07-28T02:40:37.352Z,17.10
2022-07-28T02:43:10.470Z,17.10
2022-07-28T02:45:41.706Z,17.00
2022-07-28T02:48:13.727Z,17.00
2022-07-28T02:50:42.939Z,17.00
2022-07-28T02:53:15.623Z,17.00
2022-07-28T02:55:48.221Z,17.00
2022-07-28T02:58:18.429Z,16.90
2022-07-28T03:00:46.378Z,17.00
2022-07-28T03:03:15.015Z,16.90
2022-07-28T03:05:42.641Z,16.90
2022-07-28T03:08:09.993Z,16.90
2022-07-28T03:10:37.325Z,16.90
2022-07-28T03:13:09.124Z,16.90
2022-07-28T03:15:40.293Z,16.90
2022-07-28T03:18:07.957Z,16.90
2022-07-28T03:20:35.803Z,16.90
2022-07-28T03:23:04.257Z,16.90
2022-07-28T03:25:53.906Z,16.80
2022-07-28T03:28:22.068Z,16.90
2022-07-28T03:31:03.941Z,16.80
2022-07-28T03:33:33.437Z,16.90
2022-07-28T03:36:06.774Z,16.80
2022-07-28T03:38:46.114Z,16.80
2022-07-28T03:41:15.109Z,16.80
2022-07-28T03:43:44.399Z,16.80
2022-07-28T03:46:13.616Z,16.80
2022-07-28T03:48:41.049Z,16.70
2022-07-28T03:51:08.327Z,16.70
2022-07-28T03:53:36.250Z,16.70
2022-07-28T03:56:03.989Z,16.70
2022-07-28T03:58:31.300Z,16.70
2022-07-28T04:00:59.298Z,16.70
2022-07-28T04:03:42.805Z,16.70
2022-07-28T04:06:15.710Z,16.70
2022-07-28T04:08:43.747Z,16.70
2022-07-28T04:11:11.357Z,16.60
2022-07-28T04:13:38.774Z,16.60
2022-07-28T04:16:07.172Z,16.60
2022-07-28T04:18:34.867Z,16.50
2022-07-28T04:21:02.251Z,16.50
2022-07-28T04:23:30.804Z,16.40
2022-07-28T04:25:58.018Z,16.40
2022-07-28T04:28:25.442Z,16.40
2022-07-28T04:30:52.789Z,16.40
2022-07-28T04:33:19.995Z,16.40
2022-07-28T04:35:47.433Z,16.30
2022-07-28T04:38:17.283Z,16.30
2022-07-28T04:40:44.676Z,16.20
2022-07-28T04:43:12.118Z,16.20
2022-07-28T04:45:39.646Z,16.10
2022-07-28T04:48:13.698Z,16.10
2022-07-28T04:50:42.164Z,16.00
2022-07-28T04:53:09.435Z,16.00
2022-07-28T04:55:39.042Z,16.00
2022-07-28T04:58:07.068Z,15.90
2022-07-28T05:00:36.688Z,15.90
2022-07-28T05:03:04.372Z,16.00
2022-07-28T05:05:31.793Z,15.90
2022-07-28T05:07:59.086Z,15.90
2022-07-28T05:10:26.353Z,16.00
2022-07-28T05:12:54.531Z,16.00
2022-07-28T05:15:21.786Z,16.10
2022-07-28T05:17:50.282Z,16.10
2022-07-28T05:20:17.642Z,16.20
2022-07-28T05:22:47.283Z,16.20
2022-07-28T05:25:16.106Z,16.30
2022-07-28T05:27:44.144Z,16.40
2022-07-28T05:30:11.513Z,16.60
2022-07-28T05:32:39.088Z,16.70
2022-07-28T05:35:06.835Z,16.80
2022-07-28T05:37:35.522Z,16.90
2022-07-28T05:40:08.243Z,17.00
2022-07-28T05:42:38.584Z,17.10
2022-07-28T05:45:15.634Z,17.20
2022-07-28T05:47:48.624Z,17.30
2022-07-28T05:50:17.337Z,17.40
2022-07-28T05:52:45.579Z,17.50
2022-07-28T05:55:13.414Z,17.60
2022-07-28T05:57:41.275Z,17.80
2022-07-28T06:00:17.815Z,17.80
2022-07-28T06:02:46.102Z,18.10
2022-07-28T06:05:14.070Z,18.80
2022-07-28T06:07:43.243Z,19.60
2022-07-28T06:10:16.851Z,19.80
2022-07-28T06:12:49.414Z,19.60
2022-07-28T06:15:22.241Z,19.50
2022-07-28T06:17:55.307Z,19.40
2022-07-28T06:20:24.462Z,19.30
2022-07-28T06:22:55.175Z,19.20
2022-07-28T06:25:28.281Z,19.20
2022-07-28T06:27:57.694Z,19.20
2022-07-28T06:30:25.699Z,19.20
2022-07-28T06:32:53.327Z,19.20
2022-07-28T06:35:20.556Z,19.30
2022-07-28T06:37:49.289Z,19.30
2022-07-28T06:40:18.476Z,19.40
2022-07-28T06:42:46.501Z,19.50
2022-07-28T06:45:21.000Z,19.60
2022-07-28T06:47:49.958Z,19.70
2022-07-28T06:50:26.351Z,19.70
2022-07-28T06:52:56.611Z,19.70
2022-07-28T06:55:23.946Z,19.70
2022-07-28T06:57:51.473Z,19.80
2022-07-28T07:00:18.933Z,19.80
2022-07-28T07:02:46.289Z,19.80
2022-07-28T07:05:14.039Z,19.70
2022-07-28T07:07:43.487Z,19.70
2022-07-28T07:10:11.372Z,19.70
2022-07-28T07:12:38.670Z,19.70
2022-07-28T07:15:07.253Z,19.70
2022-07-28T07:17:34.452Z,19.70
2022-07-28T07:20:01.773Z,19.70
2022-07-28T07:22:28.964Z,19.80
2022-07-28T07:24:57.784Z,19.80
2022-07-28T07:27:25.146Z,19.80
2022-07-28T07:29:52.254Z,19.90
2022-07-28T07:32:19.396Z,20.00
2022-07-28T07:34:46.581Z,20.10
2022-07-28T07:37:15.295Z,20.30
2022-07-28T07:39:42.497Z,20.50
2022-07-28T07:42:09.652Z,20.80
2022-07-28T07:44:36.938Z,20.80
2022-07-28T07:47:04.537Z,20.80
2022-07-28T07:49:45.354Z,20.70
2022-07-28T07:52:14.564Z,20.60
2022-07-28T07:54:42.380Z,20.40
2022-07-28T07:57:10.086Z,20.20
2022-07-28T07:59:37.649Z,20.30
2022-07-28T08:02:05.316Z,20.30
2022-07-28T08:04:37.709Z,20.30
2022-07-28T08:07:06.628Z,20.40
2022-07-28T08:09:34.547Z,20.00
2022-07-28T08:12:01.861Z,20.10
2022-07-28T08:14:29.333Z,20.20
2022-07-28T08:16:58.510Z,20.10
2022-07-28T08:19:26.048Z,20.30
2022-07-28T08:21:55.526Z,20.50
2022-07-28T08:24:33.720Z,20.40
2022-07-28T08:27:04.761Z,20.50
2022-07-28T08:29:32.064Z,20.70
2022-07-28T08:32:01.343Z,20.60
2022-07-28T08:34:32.942Z,20.70
2022-07-28T08:37:04.226Z,20.90
2022-07-28T08:39:33.736Z,20.80
2022-07-28T08:42:17.950Z,20.70
2022-07-28T08:45:01.266Z,20.80
2022-07-28T08:47:40.553Z,21.00
2022-07-28T08:50:16.298Z,21.10
2022-07-28T08:52:45.817Z,21.20
2022-07-28T08:55:19.416Z,21.20
2022-07-28T08:57:47.381Z,21.50
2022-07-28T09:00:14.874Z,21.60
2022-07-28T09:02:46.448Z,21.40
2022-07-28T09:05:23.871Z,21.60
2022-07-28T09:07:54.796Z,21.80
2022-07-28T09:10:23.320Z,22.00
2022-07-28T09:12:50.835Z,22.20
2022-07-28T09:15:18.080Z,22.40
2022-07-28T09:17:45.651Z,22.60
2022-07-28T09:20:13.997Z,22.60
2022-07-28T09:22:57.566Z,22.70
2022-07-28T09:25:25.602Z,22.60
2022-07-28T09:27:53.501Z,22.80
2022-07-28T09:30:54.282Z,22.80
2022-07-28T09:33:42.725Z,23.00
2022-07-28T09:36:16.277Z,22.90
2022-07-28T09:38:44.746Z,23.10
2022-07-28T09:41:12.331Z,23.10
2022-07-28T09:43:44.569Z,23.20
2022-07-28T09:46:14.268Z,23.30
2022-07-28T09:48:51.240Z,23.30
2022-07-28T09:51:21.959Z,23.40
2022-07-28T09:53:49.957Z,23.60
2022-07-28T09:56:17.232Z,23.70
2022-07-28T09:58:57.461Z,23.70
2022-07-28T10:01:28.646Z,23.70
2022-07-28T10:04:04.455Z,23.80
2022-07-28T10:06:34.132Z,23.90
2022-07-28T10:09:05.450Z,23.80
2022-07-28T10:11:35.377Z,23.60
2022-07-28T10:14:07.294Z,23.60
2022-07-28T10:16:36.725Z,23.80
2022-07-28T10:19:06.158Z,24.00
2022-07-28T10:21:45.796Z,24.00
2022-07-28T10:24:35.098Z,24.20
2022-07-28T10:27:04.632Z,24.20
2022-07-28T10:29:31.800Z,24.20
2022-07-28T10:32:05.200Z,24.30
2022-07-28T10:34:43.661Z,24.30
2022-07-28T10:37:17.629Z,24.40
2022-07-28T10:39:51.719Z,24.10
2022-07-28T10:42:20.802Z,24.10
2022-07-28T10:44:48.992Z,23.90
2022-07-28T10:47:18.639Z,24.00
2022-07-28T10:49:49.125Z,24.10
2022-07-28T10:52:37.703Z,24.10
2022-07-28T10:55:20.192Z,23.90
2022-07-28T10:58:01.773Z,23.80
2022-07-28T11:00:46.870Z,24.10
2022-07-28T11:03:36.303Z,24.20
2022-07-28T11:06:26.800Z,24.20
2022-07-28T11:08:55.607Z,24.20
2022-07-28T11:11:44.556Z,24.10
2022-07-28T11:14:27.800Z,24.10
2022-07-28T11:17:04.124Z,24.00
2022-07-28T11:22:35.056Z,24.10
2022-07-28T11:25:19.785Z,24.30
2022-07-28T11:27:54.625Z,24.40
2022-07-28T11:30:28.976Z,24.40
2022-07-28T11:32:57.956Z,24.60
2022-07-28T11:35:47.365Z,24.70
2022-07-28T11:38:15.157Z,24.90
2022-07-28T11:41:08.321Z,24.80
2022-07-28T11:43:38.868Z,24.50
2022-07-28T11:46:09.728Z,24.70
2022-07-28T11:48:42.743Z,24.70
2022-07-28T11:51:12.467Z,24.70
2022-07-28T11:53:40.716Z,24.60
2022-07-28T11:56:16.366Z,24.50
2022-07-28T11:58:43.716Z,24.30
2022-07-28T12:01:18.887Z,24.10
2022-07-28T12:03:50.082Z,23.80
2022-07-28T12:06:29.106Z,23.90
2022-07-28T12:09:00.989Z,24.00
2022-07-28T12:11:35.676Z,23.90
2022-07-28T12:14:07.642Z,23.70
2022-07-28T12:16:40.242Z,23.60
2022-07-28T12:19:08.491Z,23.50
2022-07-28T12:21:49.255Z,23.60
2022-07-28T12:24:28.227Z,23.60
2022-07-28T12:26:57.789Z,23.70
2022-07-28T12:29:35.423Z,23.80
2022-07-28T12:32:06.539Z,23.70
2022-07-28T12:34:35.290Z,23.70
2022-07-28T12:37:10.103Z,23.80
2022-07-28T12:39:39.641Z,23.80
2022-07-28T12:42:09.590Z,23.90
2022-07-28T12:44:39.902Z,23.90
2022-07-28T12:47:09.200Z,23.90
2022-07-28T12:49:37.561Z,23.80
2022-07-28T12:52:24.551Z,23.80
2022-07-28T12:54:56.647Z,23.70
2022-07-28T12:57:51.569Z,23.70
2022-07-28T13:00:23.468Z,23.80
2022-07-28T13:02:52.939Z,23.80
2022-07-28T13:05:54.141Z,23.80
2022-07-28T13:08:27.627Z,23.90
2022-07-28T13:10:58.844Z,23.90
2022-07-28T13:13:27.515Z,24.00
2022-07-28T13:16:15.660Z,24.00
2022-07-28T13:18:53.484Z,24.00
2022-07-28T13:21:56.145Z,24.10
2022-07-28T13:24:24.880Z,24.00
2022-07-28T13:26:52.025Z,23.90
2022-07-28T13:29:19.718Z,24.00
2022-07-28T13:31:47.224Z,23.90
2022-07-28T13:34:14.981Z,23.90
2022-07-28T13:36:42.487Z,23.90
2022-07-28T13:39:13.907Z,24.00
2022-07-28T13:41:56.368Z,24.00
2022-07-28T13:44:28.514Z,23.90
2022-07-28T13:46:56.778Z,23.90
2022-07-28T13:49:31.722Z,23.90
2022-07-28T13:52:00.211Z,23.90
2022-07-28T13:54:28.078Z,23.90
2022-07-28T13:56:55.504Z,23.80
2022-07-28T13:59:24.084Z,24.00
2022-07-28T14:01:55.943Z,24.10
2022-07-28T14:04:24.376Z,24.20
2022-07-28T14:06:52.262Z,24.40
2022-07-28T14:09:21.311Z,24.50
2022-07-28T14:11:49.971Z,24.60
2022-07-28T14:14:25.287Z,24.50
2022-07-28T14:16:56.153Z,24.60
2022-07-28T14:19:38.659Z,24.70
2022-07-28T14:22:13.417Z,24.60
2022-07-28T14:24:44.434Z,24.70
2022-07-28T14:27:11.698Z,24.70
2022-07-28T14:29:39.552Z,24.60
2022-07-28T14:32:07.439Z,24.60
2022-07-28T14:34:35.272Z,24.50
2022-07-28T14:37:09.005Z,24.30
2022-07-28T14:39:38.266Z,24.30
2022-07-28T14:42:06.600Z,24.40
2022-07-28T14:44:34.387Z,24.40
2022-07-28T14:47:01.890Z,24.30
2022-07-28T14:49:29.561Z,24.30
2022-07-28T14:51:57.875Z,24.40
2022-07-28T14:54:25.446Z,24.40
2022-07-28T14:56:52.606Z,24.60
2022-07-28T14:59:19.866Z,24.70
2022-07-28T15:01:48.644Z,24.70
2022-07-28T15:04:17.055Z,24.60
2022-07-28T15:06:44.627Z,24.60
2022-07-28T15:09:12.116Z,24.70
2022-07-28T15:11:41.223Z,24.50
2022-07-28T15:14:08.382Z,24.40
2022-07-28T15:16:35.961Z,24.30
2022-07-28T15:19:03.568Z,24.40
2022-07-28T15:21:35.841Z,24.30
2022-07-28T15:24:04.218Z,24.30
2022-07-28T15:26:31.286Z,24.20
2022-07-28T15:28:58.577Z,24.10
2022-07-28T15:31:26.151Z,24.00
2022-07-28T15:33:58.681Z,24.00
2022-07-28T15:36:26.308Z,23.90
2022-07-28T15:38:54.400Z,23.80
2022-07-28T15:41:21.647Z,23.70
2022-07-28T15:43:48.946Z,23.70
2022-07-28T15:46:16.453Z,23.80
2022-07-28T15:48:44.685Z,23.80
2022-07-28T15:51:12.143Z,23.70
2022-07-28T15:53:41.288Z,23.80
2022-07-28T15:56:08.906Z,23.80
2022-07-28T15:58:36.580Z,23.70
2022-07-28T16:01:03.945Z,23.70
2022-07-28T16:03:31.165Z,23.60
2022-07-28T16:05:58.846Z,23.70
2022-07-28T16:08:26.820Z,23.80
2022-07-28T16:10:54.925Z,23.90
2022-07-28T16:13:36.191Z,24.00
2022-07-28T16:16:11.901Z,24.10
2022-07-28T16:18:40.612Z,24.10
2022-07-28T16:21:09.295Z,24.10
2022-07-28T16:23:37.048Z,23.90
2022-07-28T16:26:07.768Z,23.80
2022-07-28T16:28:35.830Z,23.70
2022-07-28T16:31:03.108Z,23.60
2022-07-28T16:33:33.478Z,23.60
2022-07-28T16:36:02.212Z,23.60
2022-07-28T16:38:29.864Z,23.60
2022-07-28T16:40:57.346Z,23.60
2022-07-28T16:43:24.696Z,23.50
2022-07-28T16:45:52.181Z,23.40
2022-07-28T16:48:20.115Z,23.30
2022-07-28T16:50:47.389Z,23.20
2022-07-28T16:53:14.628Z,23.30
2022-07-28T16:55:42.360Z,23.30
2022-07-28T16:58:09.675Z,23.40
2022-07-28T17:00:37.002Z,23.40
2022-07-28T17:03:04.247Z,23.40
2022-07-28T17:05:32.847Z,23.50
2022-07-28T17:08:00.184Z,23.50
2022-07-28T17:10:27.814Z,23.40
2022-07-28T17:12:55.212Z,23.40
2022-07-28T17:15:23.553Z,23.40
2022-07-28T17:17:51.996Z,23.40
2022-07-28T17:20:20.611Z,23.40
2022-07-28T17:22:48.712Z,23.40
2022-07-28T17:28:05.648Z,23.20
2022-07-28T17:30:33.804Z,23.10
2022-07-28T17:33:08.086Z,23.10
2022-07-28T17:35:37.478Z,23.10
2022-07-28T17:38:07.304Z,23.10
2022-07-28T17:40:35.928Z,23.10
2022-07-28T17:43:03.182Z,23.10
2022-07-28T17:45:30.398Z,23.20
2022-07-28T17:47:57.647Z,23.10
2022-07-28T17:50:24.966Z,23.10
2022-07-28T17:52:52.086Z,23.00
2022-07-28T17:55:37.866Z,23.00
2022-07-28T17:58:29.105Z,22.90
2022-07-28T18:01:10.719Z,22.90
2022-07-28T18:03:59.761Z,23.00
2022-07-28T18:06:29.998Z,23.00
2022-07-28T18:08:57.782Z,22.90
2022-07-28T18:11:32.577Z,22.90
2022-07-28T18:14:04.584Z,22.90
2022-07-28T18:16:35.250Z,22.80
2022-07-28T18:19:05.301Z,22.70
2022-07-28T18:21:32.424Z,22.70
2022-07-28T18:24:02.516Z,22.70
2022-07-28T18:26:29.865Z,22.60
2022-07-28T18:28:57.118Z,22.60
2022-07-28T18:31:24.473Z,22.50
2022-07-28T18:33:51.612Z,22.60
2022-07-28T18:36:18.707Z,22.60
2022-07-28T18:38:45.964Z,22.50
2022-07-28T18:41:13.531Z,22.50
2022-07-28T18:43:40.705Z,22.50
2022-07-28T18:46:07.958Z,22.50
2022-07-28T18:48:35.258Z,22.50
2022-07-28T18:51:02.499Z,22.50
2022-07-28T18:53:29.756Z,22.50
2022-07-28T18:55:57.066Z,22.40
2022-07-28T18:58:24.255Z,22.30
2022-07-28T19:00:51.694Z,22.20
2022-07-28T19:03:18.974Z,22.20
2022-07-28T19:05:46.696Z,22.20
2022-07-28T19:08:14.117Z,22.10
2022-07-28T19:10:41.346Z,22.10
2022-07-28T19:13:09.207Z,22.00
2022-07-28T19:15:41.277Z,22.00
2022-07-28T19:18:10.536Z,22.00
2022-07-28T19:20:44.463Z,22.00
2022-07-28T19:23:11.688Z,22.00
2022-07-28T19:25:39.759Z,22.00
2022-07-28T19:28:07.050Z,21.90
2022-07-28T19:30:34.969Z,21.90
2022-07-28T19:33:03.389Z,21.90
2022-07-28T19:35:30.753Z,21.80
2022-07-28T19:38:00.146Z,21.80
2022-07-28T19:40:31.856Z,21.80
2022-07-28T19:42:59.705Z,21.70
2022-07-28T19:45:27.162Z,21.60
2022-07-28T19:47:57.249Z,21.60
2022-07-28T19:50:24.501Z,21.60
2022-07-28T19:52:51.663Z,21.50
2022-07-28T19:55:19.140Z,21.50
2022-07-28T19:57:46.817Z,21.50
2022-07-28T20:00:17.333Z,21.50
2022-07-28T20:02:45.937Z,21.50
2022-07-28T20:05:13.383Z,21.50
2022-07-28T20:07:40.785Z,21.50
2022-07-28T20:10:08.593Z,21.40
2022-07-28T20:12:36.910Z,21.40
2022-07-28T20:15:05.852Z,21.30
2022-07-28T20:17:38.910Z,21.20
2022-07-28T20:20:09.034Z,21.10
2022-07-28T20:22:37.782Z,21.10
2022-07-28T20:25:05.687Z,21.00
2022-07-28T20:27:40.429Z,21.00
2022-07-28T20:30:13.048Z,20.90
2022-07-28T20:32:42.150Z,20.90
2022-07-28T20:35:10.653Z,20.80
2022-07-28T20:37:38.997Z,20.80
2022-07-28T20:40:07.324Z,20.80
2022-07-28T20:42:35.236Z,20.70
2022-07-28T20:45:03.126Z,20.70
2022-07-28T20:47:32.501Z,20.70
2022-07-28T20:50:00.497Z,20.60
2022-07-28T20:52:27.699Z,20.70
2022-07-28T20:54:55.365Z,20.70
2022-07-28T20:57:23.325Z,20.70
2022-07-28T20:59:53.483Z,20.60
2022-07-28T21:02:21.045Z,20.70
2022-07-28T21:04:50.224Z,20.60
2022-07-28T21:07:59.795Z,20.60
2022-07-28T21:10:08.645Z,20.50
2022-07-28T21:12:37.236Z,20.50
2022-07-28T21:15:05.955Z,20.50
2022-07-28T21:17:33.324Z,20.50
2022-07-28T21:20:00.716Z,20.30
2022-07-28T21:22:27.944Z,20.20
2022-07-28T21:24:55.884Z,20.20
2022-07-28T21:27:23.939Z,20.30
2022-07-28T21:32:18.494Z,20.20
2022-07-28T21:34:45.930Z,20.20
2022-07-28T21:37:14.128Z,20.20
2022-07-28T21:39:41.417Z,20.20
2022-07-28T21:42:09.434Z,20.20
2022-07-28T21:44:37.723Z,20.20
2022-07-28T21:47:05.249Z,20.20
2022-07-28T21:49:32.864Z,20.20
2022-07-28T21:52:00.260Z,20.30
2022-07-28T21:54:27.904Z,20.30
2022-07-28T21:56:55.161Z,20.30
2022-07-28T21:59:22.257Z,20.30
2022-07-28T22:01:49.600Z,20.30
2022-07-28T22:04:17.331Z,20.30
2022-07-28T22:06:46.571Z,20.20
2022-07-28T22:09:15.178Z,20.30
2022-07-28T22:11:42.728Z,20.30
2022-07-28T22:14:10.219Z,20.20
2022-07-28T22:16:37.518Z,20.20
2022-07-28T22:19:04.925Z,20.30
2022-07-28T22:21:32.051Z,20.30
2022-07-28T22:23:59.403Z,20.20
2022-07-28T22:26:26.862Z,20.20
2022-07-28T22:28:54.123Z,20.20
2022-07-28T22:31:21.521Z,20.20
2022-07-28T22:33:48.677Z,20.10
2022-07-28T22:36:15.854Z,20.10
2022-07-28T22:38:43.268Z,20.20
2022-07-28T22:41:10.454Z,20.10
2022-07-28T22:43:37.933Z,20.10
2022-07-28T22:46:05.254Z,20.10
2022-07-28T22:48:32.470Z,20.20
2022-07-28T22:50:59.637Z,20.10
2022-07-28T22:53:26.809Z,20.10
2022-07-28T22:58:40.190Z,20.00
2022-07-28T23:01:07.610Z,20.00
2022-07-28T23:03:34.852Z,20.00
2022-07-28T23:06:03.714Z,20.00
2022-07-28T23:08:30.830Z,19.90
2022-07-28T23:10:57.966Z,19.90
2022-07-28T23:13:25.457Z,19.90
2022-07-28T23:15:52.709Z,19.90
2022-07-28T23:18:19.854Z,19.90
2022-07-28T23:20:47.149Z,19.90
2022-07-28T23:23:18.334Z,19.90
2022-07-28T23:25:46.890Z,19.90
2022-07-28T23:28:14.189Z,19.80
2022-07-28T23:30:41.480Z,19.80
2022-07-28T23:33:08.789Z,19.80
2022-07-28T23:35:43.283Z,19.70
2022-07-28T23:38:10.446Z,19.80
2022-07-28T23:40:37.654Z,19.70
2022-07-28T23:43:04.942Z,19.60
2022-07-28T23:45:32.264Z,19.60
2022-07-28T23:47:59.366Z,19.60
2022-07-28T23:50:27.289Z,19.60
2022-07-28T23:52:54.627Z,19.50
2022-07-28T23:55:21.991Z,19.50
2022-07-28T23:57:50.165Z,19.50
